Maersk Dayton — DDSC2 — position and weather

sailwx.info

Track history (hours):
 
Tides and Currents Weather Stations Pressure Air Temp Water Temp Dewpoint Dewpoint Depression Visibility Wind Speed Wind Dir Waves Ship Positions

Maersk Dayton

Last reported at 2016-May-05 02:33 UTC. Time now 2016-May-05 02:52 UTC.
Position N 50°14' W 001°32'.

Length 281 m; beam 32.2 m; draft 12.5 m.

Type: Cargo ship. MMSI: 218024000.

Date/timePositionNaut miles runAvg speedWind from/ knotsBaromVisibWave heightAir tempDewpointWater temp
2016-May-05 02:33N 50°14' W 001°32'2019.7
2016-May-05 01:33N 50°19' W 001°02'2020.2
2016-May-05 00:33N 50°24' W 000°32'1919.3
2016-May-04 23:33N 50°29' W 000°02'1818.5
2016-May-04 22:34N 50°34' E 000°26'1717.0
2016-May-04 21:33N 50°42' E 000°49'1616.5
2016-May-04 20:33N 50°52' E 001°10'1717.2
2016-May-04 19:33N 51°03' E 001°30'1515.3
2016-May-04 18:33N 51°15' E 001°47'1313.0
2016-May-04 17:33N 51°24' E 002°01'1717.0
2016-May-04 16:33N 51°22' E 002°28'1615.7
2016-May-04 15:33N 51°23' E 002°53'1818.3
2016-May-04 14:33N 51°25' E 003°22'1414.4
2016-May-04 13:33N 51°22' E 003°45'1110.9
2016-May-04 12:33N 51°23' E 004°02'10 9.7
2016-May-04 11:34N 51°20' E 004°16'2 1.9
2016-May-04 10:32N 51°18' E 004°16'0 0.0
2016-May-04 09:32N 51°18' E 004°16'0 0.0
2016-May-04 08:32N 51°18' E 004°16'0 0.0
2016-May-04 07:29N 51°18' E 004°16'0 0.0
2016-May-04 06:32N 51°18' E 004°16'0 0.0
2016-May-04 05:28N 51°18' E 004°16'0 0.0
2016-May-04 04:31N 51°18' E 004°16'0 0.0
2016-May-04 03:31N 51°18' E 004°16'0 0.0
2016-May-04 02:32N 51°18' E 004°16'0 0.0
2016-May-04 01:32N 51°18' E 004°16'0 0.0
2016-May-04 00:33N 51°18' E 004°16'0 0.0
2016-May-03 23:31N 51°18' E 004°16'0 0.0
2016-May-03 22:33N 51°18' E 004°16'0 0.0
2016-May-03 21:33N 51°18' E 004°16'0 0.0
2016-May-03 20:33N 51°18' E 004°16'0 0.0
2016-May-03 19:33N 51°18' E 004°16'0 0.0
2016-May-03 18:33N 51°18' E 004°16'0 0.0
2016-May-03 17:33N 51°18' E 004°16'0 0.0
2016-May-03 16:33N 51°18' E 004°16'0 0.0
2016-May-03 15:33N 51°18' E 004°16'2 1.8
2016-May-03 14:33N 51°19' E 004°16'9 8.9
2016-May-03 13:33N 51°23' E 004°03'8 8.4
2016-May-03 12:34N 51°21' E 003°50'1211.6
2016-May-03 11:33N 51°25' E 003°33'1717.0
2016-May-03 10:33N 51°24' E 003°06'1414.3
2016-May-03 09:33N 51°22' E 002°43'9 9.5
2016-May-03 08:33N 51°21' E 002°28'9 8.7
2016-May-03 07:33N 51°19' E 002°15'1111.3
2016-May-03 06:33N 51°23' E 001°58'1212.3
2016-May-03 05:33N 51°34' E 001°48'1212.3
2016-May-03 04:33N 51°46' E 001°44'7 6.8
2016-May-03 03:33N 51°46' E 001°33'1615.6
2016-May-03 02:34N 51°35' E 001°16'1716.8
2016-May-03 01:34N 51°29' E 000°50'1312.7
2016-May-03 00:33N 51°30' E 000°30'0 0.0
2016-May-02 23:34N 51°30' E 000°30'0 0.0
2016-May-02 22:33N 51°30' E 000°30'0 0.0
2016-May-02 21:33N 51°30' E 000°30'0 0.0
2016-May-02 20:33N 51°30' E 000°30'0 0.0
2016-May-02 19:33N 51°30' E 000°30'0 0.0
2016-May-02 18:34N 51°30' E 000°30'0 0.0
2016-May-02 17:33N 51°30' E 000°30'0 0.0
2016-May-02 16:34N 51°30' E 000°30'0 0.0
2016-May-02 15:34N 51°30' E 000°30'0 0.0
2016-May-02 14:33N 51°30' E 000°30'0 0.0
2016-May-02 13:34N 51°30' E 000°30'0 0.0
2016-May-02 12:34N 51°30' E 000°30'0 0.0
2016-May-02 11:34N 51°30' E 000°30'0 0.0
2016-May-02 10:33N 51°30' E 000°30'0 0.0
2016-May-02 09:34N 51°30' E 000°30'0 0.0
2016-May-02 08:34N 51°30' E 000°30'0 0.0
2016-May-02 07:33N 51°30' E 000°30'0 0.0
2016-May-02 06:34N 51°30' E 000°30'0 0.0
2016-May-02 05:34N 51°30' E 000°30'1 0.8
2016-May-02 04:33N 51°30' E 000°31'10 9.7
2016-May-02 03:34N 51°29' E 000°47'1413.8
2016-May-02 02:33N 51°33' E 001°08'1616.2
2016-May-02 01:33N 51°43' E 001°29'1312.7
2016-May-02 00:33N 51°53' E 001°42'1514.8
2016-May-01 23:33N 52°05' E 001°55'1212.1
2016-May-01 22:33N 52°12' E 002°11'1111.4
2016-May-01 21:33N 52°20' E 002°25'1111.3
2016-May-01 20:33N 52°27' E 002°39'1110.7
2016-May-01 19:33N 52°34' E 002°52'1111.2
2016-May-01 18:33N 52°41' E 003°07'1211.7
2016-May-01 17:33N 52°47' E 003°23'1512.6
2016-May-01 16:23N 52°54' E 003°45'1112.7
2016-May-01 15:32N 52°59' E 004°01'1312.5
2016-May-01 14:31N 53°07' E 004°17'2410.9
2016-May-01 12:17N 53°28' E 004°37'810.7
2016-May-01 11:30N 53°32' E 004°50'1010.9
2016-May-01 10:33N 53°36' E 005°06'1211.7
2016-May-01 09:33N 53°39' E 005°25'1212.5
2016-May-01 08:33N 53°43' E 005°45'1313.0
2016-May-01 07:33N 53°47' E 006°06'1312.9
2016-May-01 06:33N 53°51' E 006°27'1312.6
2016-May-01 05:33N 53°54' E 006°47'1212.1
2016-May-01 04:33N 53°56' E 007°07'1111.4
2016-May-01 03:33N 53°60' E 007°26'1111.1
2016-May-01 02:34N 54°02' E 007°45'1111.0
2016-May-01 01:33N 54°01' E 008°03'1212.2
2016-May-01 00:34N 53°59' E 008°24'1616.0
2016-Apr-30 23:34N 53°51' E 008°47'1616.4
2016-Apr-30 22:34N 53°53' E 009°14'1515.5
2016-Apr-30 21:34N 53°41' E 009°30'1212.0
2016-Apr-30 20:33N 53°34' E 009°47'5 5.1
2016-Apr-30 19:31N 53°32' E 009°55'0 0.0
2016-Apr-30 18:33N 53°32' E 009°55'0 0.0
2016-Apr-30 17:33N 53°32' E 009°55'0 0.0
2016-Apr-30 16:33N 53°32' E 009°55'0 0.0
2016-Apr-30 15:33N 53°32' E 009°55'0 0.0
2016-Apr-30 14:33N 53°32' E 009°55'0 0.0
2016-Apr-30 13:32N 53°32' E 009°55'0 0.0
2016-Apr-30 12:33N 53°32' E 009°55'0 0.0
2016-Apr-30 11:31N 53°32' E 009°55'0 0.0
2016-Apr-30 10:32N 53°32' E 009°55'0 0.0
2016-Apr-30 09:32N 53°32' E 009°55'0 0.0
2016-Apr-30 08:32N 53°32' E 009°55'0 0.0
2016-Apr-30 07:33N 53°32' E 009°55'0 0.0
2016-Apr-30 06:31N 53°32' E 009°55'0 0.0
2016-Apr-30 05:32N 53°32' E 009°55'0 0.0
2016-Apr-30 04:32N 53°32' E 009°55'0 0.0
2016-Apr-30 03:32N 53°32' E 009°55'0 0.0
2016-Apr-30 02:32N 53°32' E 009°55'0 0.0
2016-Apr-30 01:32N 53°32' E 009°55'0 0.0
2016-Apr-30 00:32N 53°32' E 009°55'0 0.0
2016-Apr-29 23:31N 53°32' E 009°55'0 0.0
2016-Apr-29 22:31N 53°32' E 009°55'0 0.0
2016-Apr-29 21:31N 53°32' E 009°55'0 0.0
2016-Apr-29 20:31N 53°32' E 009°55'0 0.0
2016-Apr-29 19:31N 53°32' E 009°55'0 0.0
2016-Apr-29 18:32N 53°32' E 009°55'0 0.0
2016-Apr-29 17:32N 53°32' E 009°55'0 0.0
2016-Apr-29 16:33N 53°32' E 009°55'0 0.0
2016-Apr-29 15:32N 53°32' E 009°55'0 0.0
2016-Apr-29 14:32N 53°32' E 009°55'0 0.0
2016-Apr-29 13:32N 53°32' E 009°55'0 0.0
2016-Apr-29 12:32N 53°32' E 009°55'0 0.0
2016-Apr-29 11:31N 53°32' E 009°55'0 0.1
2016-Apr-29 10:33N 53°32' E 009°55'5 4.8
2016-Apr-29 09:33N 53°33' E 009°47'1010.1
2016-Apr-29 08:33N 53°38' E 009°32'1212.5
2016-Apr-29 07:34N 53°49' E 009°22'1111.4
2016-Apr-29 06:33N 53°52' E 009°04'1312.6
2016-Apr-29 05:33N 53°53' E 008°42'1414.5
2016-Apr-29 04:33N 53°60' E 008°20'1111.1
2016-Apr-29 03:33N 53°59' E 008°01'1111.3
2016-Apr-29 02:34N 53°56' E 007°43'1716.8
2016-Apr-29 01:33N 53°53' E 007°15'1717.1
2016-Apr-29 00:34N 53°49' E 006°47'1717.2
2016-Apr-28 23:33N 53°45' E 006°18'1717.2
2016-Apr-28 22:34N 53°40' E 005°51'1717.3
2016-Apr-28 21:34N 53°34' E 005°23'1817.5
2016-Apr-28 20:34N 53°28' E 004°56'1817.6
2016-Apr-28 19:33N 53°15' E 004°35'1818.2
2016-Apr-28 18:34N 52°59' E 004°20'1817.6
2016-Apr-28 17:34N 52°44' E 004°06'1717.0
2016-Apr-28 16:34N 52°28' E 003°54'1717.4
2016-Apr-28 15:34N 52°11' E 003°54'9 9.3
2016-Apr-28 14:33N 52°02' E 003°56'7 6.9
2016-Apr-28 13:34N 51°57' E 004°03'0 0.3
2016-Apr-28 12:33N 51°57' E 004°03'0 0.0
2016-Apr-28 11:33N 51°57' E 004°03'0 0.0
2016-Apr-28 10:32N 51°57' E 004°03'0 0.0
2016-Apr-28 09:32N 51°57' E 004°03'0 0.0
2016-Apr-28 08:32N 51°57' E 004°03'0 0.0
2016-Apr-28 07:31N 51°57' E 004°03'0 0.0
2016-Apr-28 06:31N 51°57' E 004°03'0 0.0
2016-Apr-28 05:31N 51°57' E 004°03'0 0.0
2016-Apr-28 04:31N 51°57' E 004°03'0 0.0
2016-Apr-28 03:31N 51°57' E 004°03'0 0.0
2016-Apr-28 02:31N 51°57' E 004°03'0 0.0
2016-Apr-28 01:31N 51°57' E 004°03'0 0.0
2016-Apr-28 00:33N 51°57' E 004°03'0 0.0
2016-Apr-27 23:31N 51°57' E 004°03'0 0.0
2016-Apr-27 22:31N 51°57' E 004°03'0 0.0
2016-Apr-27 21:32N 51°57' E 004°03'0 0.0
2016-Apr-27 20:32N 51°57' E 004°03'0 0.0
2016-Apr-27 19:32N 51°57' E 004°03'0 0.0
2016-Apr-27 18:32N 51°57' E 004°03'0 0.0
2016-Apr-27 17:32N 51°57' E 004°03'0 0.0
2016-Apr-27 16:33N 51°57' E 004°03'0 0.0
2016-Apr-27 15:33N 51°57' E 004°03'0 0.0
2016-Apr-27 14:33N 51°57' E 004°03'0 0.0
2016-Apr-27 13:33N 51°57' E 004°03'2 2.2
2016-Apr-27 12:34N 51°59' E 004°04'9 8.6
2016-Apr-27 11:33N 51°60' E 003°50'9 8.6
2016-Apr-27 10:33N 51°57' E 003°37'1211.9
2016-Apr-27 09:32N 51°54' E 003°17'1411.9
2016-Apr-27 08:23N 51°50' E 002°56'1311.7
2016-Apr-27 07:15N 51°45' E 002°36'2414.0
2016-Apr-27 05:33N 51°26' E 002°13'1717.3
2016-Apr-27 04:33N 51°12' E 001°59'1919.0
2016-Apr-27 03:33N 51°01' E 001°34'1918.5
2016-Apr-27 02:33N 50°44' E 001°21'4117.5
2016-Apr-27 00:13N 50°24' E 000°25'1319.0
2016-Apr-26 23:33N 50°21' E 000°06'1919.4
2016-Apr-26 22:33N 50°16' W 000°24'2019.6
2016-Apr-26 21:33N 50°11' W 000°54'7617.6
2016-Apr-26 17:16N 49°52' W 002°47'1116.0
2016-Apr-26 16:33N 49°48' W 003°04'1816.3
2016-Apr-26 15:26N 49°41' W 003°30'26217.0
2016-Apr-26 00:00N 47°42' W 009°24'20717.3 320 / 181019.0 5.4 2.010.0 8.411.7
2016-Apr-25 12:00N 45°54' W 013°42'   360 / 71026.0 5.4 0.513.5 6.412.5
Track history (hours):
 
Tides and Currents Weather Stations Pressure Air Temp Water Temp Dewpoint Dewpoint Depression Visibility Wind Speed Wind Dir Waves Ship Positions

Maersk Dayton

Last reported at 2016-May-05 02:33 UTC. Time now 2016-May-05 02:52 UTC.
Position N 50°14' W 001°32'.

Length 281 m; beam 32.2 m; draft 12.5 m.

Type: Cargo ship. MMSI: 218024000.

Date/timePositionNaut miles runAvg speedWind from/ knotsBaromVisibWave heightAir tempDewpointWater temp
2016-May-05 02:33N 50°14' W 001°32'2019.7
2016-May-05 01:33N 50°19' W 001°02'2020.2
2016-May-05 00:33N 50°24' W 000°32'1919.3
2016-May-04 23:33N 50°29' W 000°02'1818.5
2016-May-04 22:34N 50°34' E 000°26'1717.0
2016-May-04 21:33N 50°42' E 000°49'1616.5
2016-May-04 20:33N 50°52' E 001°10'1717.2
2016-May-04 19:33N 51°03' E 001°30'1515.3
2016-May-04 18:33N 51°15' E 001°47'1313.0
2016-May-04 17:33N 51°24' E 002°01'1717.0
2016-May-04 16:33N 51°22' E 002°28'1615.7
2016-May-04 15:33N 51°23' E 002°53'1818.3
2016-May-04 14:33N 51°25' E 003°22'1414.4
2016-May-04 13:33N 51°22' E 003°45'1110.9
2016-May-04 12:33N 51°23' E 004°02'10 9.7
2016-May-04 11:34N 51°20' E 004°16'2 1.9
2016-May-04 10:32N 51°18' E 004°16'0 0.0
2016-May-04 09:32N 51°18' E 004°16'0 0.0
2016-May-04 08:32N 51°18' E 004°16'0 0.0
2016-May-04 07:29N 51°18' E 004°16'0 0.0
2016-May-04 06:32N 51°18' E 004°16'0 0.0
2016-May-04 05:28N 51°18' E 004°16'0 0.0
2016-May-04 04:31N 51°18' E 004°16'0 0.0
2016-May-04 03:31N 51°18' E 004°16'0 0.0
2016-May-04 02:32N 51°18' E 004°16'0 0.0
2016-May-04 01:32N 51°18' E 004°16'0 0.0
2016-May-04 00:33N 51°18' E 004°16'0 0.0
2016-May-03 23:31N 51°18' E 004°16'0 0.0
2016-May-03 22:33N 51°18' E 004°16'0 0.0
2016-May-03 21:33N 51°18' E 004°16'0 0.0
2016-May-03 20:33N 51°18' E 004°16'0 0.0
2016-May-03 19:33N 51°18' E 004°16'0 0.0
2016-May-03 18:33N 51°18' E 004°16'0 0.0
2016-May-03 17:33N 51°18' E 004°16'0 0.0
2016-May-03 16:33N 51°18' E 004°16'0 0.0
2016-May-03 15:33N 51°18' E 004°16'2 1.8
2016-May-03 14:33N 51°19' E 004°16'9 8.9
2016-May-03 13:33N 51°23' E 004°03'8 8.4
2016-May-03 12:34N 51°21' E 003°50'1211.6
2016-May-03 11:33N 51°25' E 003°33'1717.0
2016-May-03 10:33N 51°24' E 003°06'1414.3
2016-May-03 09:33N 51°22' E 002°43'9 9.5
2016-May-03 08:33N 51°21' E 002°28'9 8.7
2016-May-03 07:33N 51°19' E 002°15'1111.3
2016-May-03 06:33N 51°23' E 001°58'1212.3
2016-May-03 05:33N 51°34' E 001°48'1212.3
2016-May-03 04:33N 51°46' E 001°44'7 6.8
2016-May-03 03:33N 51°46' E 001°33'1615.6
2016-May-03 02:34N 51°35' E 001°16'1716.8
2016-May-03 01:34N 51°29' E 000°50'1312.7
2016-May-03 00:33N 51°30' E 000°30'0 0.0
2016-May-02 23:34N 51°30' E 000°30'0 0.0
2016-May-02 22:33N 51°30' E 000°30'0 0.0
2016-May-02 21:33N 51°30' E 000°30'0 0.0
2016-May-02 20:33N 51°30' E 000°30'0 0.0
2016-May-02 19:33N 51°30' E 000°30'0 0.0
2016-May-02 18:34N 51°30' E 000°30'0 0.0
2016-May-02 17:33N 51°30' E 000°30'0 0.0
2016-May-02 16:34N 51°30' E 000°30'0 0.0
2016-May-02 15:34N 51°30' E 000°30'0 0.0
2016-May-02 14:33N 51°30' E 000°30'0 0.0
2016-May-02 13:34N 51°30' E 000°30'0 0.0
2016-May-02 12:34N 51°30' E 000°30'0 0.0
2016-May-02 11:34N 51°30' E 000°30'0 0.0
2016-May-02 10:33N 51°30' E 000°30'0 0.0
2016-May-02 09:34N 51°30' E 000°30'0 0.0
2016-May-02 08:34N 51°30' E 000°30'0 0.0
2016-May-02 07:33N 51°30' E 000°30'0 0.0
2016-May-02 06:34N 51°30' E 000°30'0 0.0
2016-May-02 05:34N 51°30' E 000°30'1 0.8
2016-May-02 04:33N 51°30' E 000°31'10 9.7
2016-May-02 03:34N 51°29' E 000°47'1413.8
2016-May-02 02:33N 51°33' E 001°08'1616.2
2016-May-02 01:33N 51°43' E 001°29'1312.7
2016-May-02 00:33N 51°53' E 001°42'1514.8
2016-May-01 23:33N 52°05' E 001°55'1212.1
2016-May-01 22:33N 52°12' E 002°11'1111.4
2016-May-01 21:33N 52°20' E 002°25'1111.3
2016-May-01 20:33N 52°27' E 002°39'1110.7
2016-May-01 19:33N 52°34' E 002°52'1111.2
2016-May-01 18:33N 52°41' E 003°07'1211.7
2016-May-01 17:33N 52°47' E 003°23'1512.6
2016-May-01 16:23N 52°54' E 003°45'1112.7
2016-May-01 15:32N 52°59' E 004°01'1312.5
2016-May-01 14:31N 53°07' E 004°17'2410.9
2016-May-01 12:17N 53°28' E 004°37'810.7
2016-May-01 11:30N 53°32' E 004°50'1010.9
2016-May-01 10:33N 53°36' E 005°06'1211.7
2016-May-01 09:33N 53°39' E 005°25'1212.5
2016-May-01 08:33N 53°43' E 005°45'1313.0
2016-May-01 07:33N 53°47' E 006°06'1312.9
2016-May-01 06:33N 53°51' E 006°27'1312.6
2016-May-01 05:33N 53°54' E 006°47'1212.1
2016-May-01 04:33N 53°56' E 007°07'1111.4
2016-May-01 03:33N 53°60' E 007°26'1111.1
2016-May-01 02:34N 54°02' E 007°45'1111.0
2016-May-01 01:33N 54°01' E 008°03'1212.2
2016-May-01 00:34N 53°59' E 008°24'1616.0
2016-Apr-30 23:34N 53°51' E 008°47'1616.4
2016-Apr-30 22:34N 53°53' E 009°14'1515.5
2016-Apr-30 21:34N 53°41' E 009°30'1212.0
2016-Apr-30 20:33N 53°34' E 009°47'5 5.1
2016-Apr-30 19:31N 53°32' E 009°55'0 0.0
2016-Apr-30 18:33N 53°32' E 009°55'0 0.0
2016-Apr-30 17:33N 53°32' E 009°55'0 0.0
2016-Apr-30 16:33N 53°32' E 009°55'0 0.0
2016-Apr-30 15:33N 53°32' E 009°55'0 0.0
2016-Apr-30 14:33N 53°32' E 009°55'0 0.0
2016-Apr-30 13:32N 53°32' E 009°55'0 0.0
2016-Apr-30 12:33N 53°32' E 009°55'0 0.0
2016-Apr-30 11:31N 53°32' E 009°55'0 0.0
2016-Apr-30 10:32N 53°32' E 009°55'0 0.0
2016-Apr-30 09:32N 53°32' E 009°55'0 0.0
2016-Apr-30 08:32N 53°32' E 009°55'0 0.0
2016-Apr-30 07:33N 53°32' E 009°55'0 0.0
2016-Apr-30 06:31N 53°32' E 009°55'0 0.0
2016-Apr-30 05:32N 53°32' E 009°55'0 0.0
2016-Apr-30 04:32N 53°32' E 009°55'0 0.0
2016-Apr-30 03:32N 53°32' E 009°55'0 0.0
2016-Apr-30 02:32N 53°32' E 009°55'0 0.0
2016-Apr-30 01:32N 53°32' E 009°55'0 0.0
2016-Apr-30 00:32N 53°32' E 009°55'0 0.0
2016-Apr-29 23:31N 53°32' E 009°55'0 0.0
2016-Apr-29 22:31N 53°32' E 009°55'0 0.0
2016-Apr-29 21:31N 53°32' E 009°55'0 0.0
2016-Apr-29 20:31N 53°32' E 009°55'0 0.0
2016-Apr-29 19:31N 53°32' E 009°55'0 0.0
2016-Apr-29 18:32N 53°32' E 009°55'0 0.0
2016-Apr-29 17:32N 53°32' E 009°55'0 0.0
2016-Apr-29 16:33N 53°32' E 009°55'0 0.0
2016-Apr-29 15:32N 53°32' E 009°55'0 0.0
2016-Apr-29 14:32N 53°32' E 009°55'0 0.0
2016-Apr-29 13:32N 53°32' E 009°55'0 0.0
2016-Apr-29 12:32N 53°32' E 009°55'0 0.0
2016-Apr-29 11:31N 53°32' E 009°55'0 0.1
2016-Apr-29 10:33N 53°32' E 009°55'5 4.8
2016-Apr-29 09:33N 53°33' E 009°47'1010.1
2016-Apr-29 08:33N 53°38' E 009°32'1212.5
2016-Apr-29 07:34N 53°49' E 009°22'1111.4
2016-Apr-29 06:33N 53°52' E 009°04'1312.6
2016-Apr-29 05:33N 53°53' E 008°42'1414.5
2016-Apr-29 04:33N 53°60' E 008°20'1111.1
2016-Apr-29 03:33N 53°59' E 008°01'1111.3
2016-Apr-29 02:34N 53°56' E 007°43'1716.8
2016-Apr-29 01:33N 53°53' E 007°15'1717.1
2016-Apr-29 00:34N 53°49' E 006°47'1717.2
2016-Apr-28 23:33N 53°45' E 006°18'1717.2
2016-Apr-28 22:34N 53°40' E 005°51'1717.3
2016-Apr-28 21:34N 53°34' E 005°23'1817.5
2016-Apr-28 20:34N 53°28' E 004°56'1817.6
2016-Apr-28 19:33N 53°15' E 004°35'1818.2
2016-Apr-28 18:34N 52°59' E 004°20'1817.6
2016-Apr-28 17:34N 52°44' E 004°06'1717.0
2016-Apr-28 16:34N 52°28' E 003°54'1717.4
2016-Apr-28 15:34N 52°11' E 003°54'9 9.3
2016-Apr-28 14:33N 52°02' E 003°56'7 6.9
2016-Apr-28 13:34N 51°57' E 004°03'0 0.3
2016-Apr-28 12:33N 51°57' E 004°03'0 0.0
2016-Apr-28 11:33N 51°57' E 004°03'0 0.0
2016-Apr-28 10:32N 51°57' E 004°03'0 0.0
2016-Apr-28 09:32N 51°57' E 004°03'0 0.0
2016-Apr-28 08:32N 51°57' E 004°03'0 0.0
2016-Apr-28 07:31N 51°57' E 004°03'0 0.0
2016-Apr-28 06:31N 51°57' E 004°03'0 0.0
2016-Apr-28 05:31N 51°57' E 004°03'0 0.0
2016-Apr-28 04:31N 51°57' E 004°03'0 0.0
2016-Apr-28 03:31N 51°57' E 004°03'0 0.0
2016-Apr-28 02:31N 51°57' E 004°03'0 0.0
2016-Apr-28 01:31N 51°57' E 004°03'0 0.0
2016-Apr-28 00:33N 51°57' E 004°03'0 0.0
2016-Apr-27 23:31N 51°57' E 004°03'0 0.0
2016-Apr-27 22:31N 51°57' E 004°03'0 0.0
2016-Apr-27 21:32N 51°57' E 004°03'0 0.0
2016-Apr-27 20:32N 51°57' E 004°03'0 0.0
2016-Apr-27 19:32N 51°57' E 004°03'0 0.0
2016-Apr-27 18:32N 51°57' E 004°03'0 0.0
2016-Apr-27 17:32N 51°57' E 004°03'0 0.0
2016-Apr-27 16:33N 51°57' E 004°03'0 0.0
2016-Apr-27 15:33N 51°57' E 004°03'0 0.0
2016-Apr-27 14:33N 51°57' E 004°03'0 0.0
2016-Apr-27 13:33N 51°57' E 004°03'2 2.2
2016-Apr-27 12:34N 51°59' E 004°04'9 8.6
2016-Apr-27 11:33N 51°60' E 003°50'9 8.6
2016-Apr-27 10:33N 51°57' E 003°37'1211.9
2016-Apr-27 09:32N 51°54' E 003°17'1411.9
2016-Apr-27 08:23N 51°50' E 002°56'1311.7
2016-Apr-27 07:15N 51°45' E 002°36'2414.0
2016-Apr-27 05:33N 51°26' E 002°13'1717.3
2016-Apr-27 04:33N 51°12' E 001°59'1919.0
2016-Apr-27 03:33N 51°01' E 001°34'1918.5
2016-Apr-27 02:33N 50°44' E 001°21'4117.5
2016-Apr-27 00:13N 50°24' E 000°25'1319.0
2016-Apr-26 23:33N 50°21' E 000°06'1919.4
2016-Apr-26 22:33N 50°16' W 000°24'2019.6
2016-Apr-26 21:33N 50°11' W 000°54'7617.6
2016-Apr-26 17:16N 49°52' W 002°47'1116.0
2016-Apr-26 16:33N 49°48' W 003°04'1816.3
2016-Apr-26 15:26N 49°41' W 003°30'26217.0
2016-Apr-26 00:00N 47°42' W 009°24'20717.3 320 / 181019.0 5.4 2.010.0 8.411.7
2016-Apr-25 12:00N 45°54' W 013°42'   360 / 71026.0 5.4 0.513.5 6.412.5

Dump ship's entire track history